createdAt,value
2024-02-11T00:00:29.272Z,99178.63
2024-02-11T00:02:57.958Z,99180.34
2024-02-11T00:05:25.935Z,99173.69
2024-02-11T00:07:52.300Z,99173.81
2024-02-11T00:10:19.056Z,99171.25
2024-02-11T00:12:45.351Z,99182.34
2024-02-11T00:15:11.903Z,99186.66
2024-02-11T00:17:38.747Z,99189.19
2024-02-11T00:20:11.356Z,99188.34
2024-02-11T00:22:39.223Z,99184.88
2024-02-11T00:25:08.377Z,99175.41
2024-02-11T00:27:34.916Z,99173.81
2024-02-11T00:30:02.506Z,99162.13
2024-02-11T00:32:29.139Z,99165.59
2024-02-11T00:34:58.314Z,99163.84
2024-02-11T00:37:25.120Z,99161.19
2024-02-11T00:39:51.408Z,99167.91
2024-02-11T00:42:21.075Z,99162.00
2024-02-11T00:44:47.675Z,99162.00
2024-02-11T00:47:14.194Z,99162.13
2024-02-11T00:49:42.031Z,99165.47
2024-02-11T00:52:08.341Z,99168.00
2024-02-11T00:54:36.478Z,99166.53
2024-02-11T00:57:03.043Z,99165.59
2024-02-11T00:59:29.423Z,99175.84
2024-02-11T01:01:55.995Z,99174.13
2024-02-11T01:04:22.504Z,99178.50
2024-02-11T01:06:49.083Z,99182.59
2024-02-11T01:09:15.430Z,99172.50
2024-02-11T01:11:42.071Z,99165.97
2024-02-11T01:14:09.580Z,99164.38
2024-02-11T01:16:36.493Z,99161.97
2024-02-11T01:19:04.912Z,99161.34
2024-02-11T01:21:31.341Z,99167.31
2024-02-11T01:23:58.014Z,99162.91
2024-02-11T01:26:24.321Z,99157.88
2024-02-11T01:28:51.122Z,99161.03
2024-02-11T01:31:17.545Z,99154.41
2024-02-11T01:33:45.182Z,99160.47
2024-02-11T01:36:13.952Z,99159.75
2024-02-11T01:38:40.280Z,99147.09
2024-02-11T01:41:06.849Z,99150.28
2024-02-11T01:43:34.461Z,99146.88
2024-02-11T01:46:01.963Z,99147.03
2024-02-11T01:48:30.970Z,99146.41
2024-02-11T01:50:58.247Z,99143.88
2024-02-11T01:53:26.210Z,99143.09
2024-02-11T01:55:53.306Z,99143.09
2024-02-11T01:58:20.098Z,99140.56
2024-02-11T02:00:46.452Z,99146.34
2024-02-11T02:03:14.502Z,99132.59
2024-02-11T02:05:40.925Z,99127.66
2024-02-11T02:08:10.401Z,99127.66
2024-02-11T02:10:37.406Z,99129.25
2024-02-11T02:13:04.008Z,99121.00
2024-02-11T02:15:31.329Z,99122.59
2024-02-11T02:17:57.982Z,99120.88
2024-02-11T02:20:24.628Z,99112.44
2024-02-11T02:22:50.974Z,99114.94
2024-02-11T02:25:18.143Z,99110.59
2024-02-11T02:27:44.574Z,99110.72
2024-02-11T02:30:11.368Z,99103.31
2024-02-11T02:32:37.805Z,99109.31
2024-02-11T02:35:05.305Z,99103.56
2024-02-11T02:37:31.698Z,99111.03
2024-02-11T02:39:58.104Z,99107.44
2024-02-11T02:42:24.653Z,99107.19
2024-02-11T02:44:51.057Z,99114.72
2024-02-11T02:47:19.353Z,99105.19
2024-02-11T02:49:47.171Z,99107.84
2024-02-11T02:52:13.817Z,99109.66
2024-02-11T02:54:44.935Z,99107.84
2024-02-11T02:57:15.119Z,99112.59
2024-02-11T02:59:41.489Z,99115.19
2024-02-11T03:02:09.182Z,99113.31
2024-02-11T03:04:39.818Z,99116.13
2024-02-11T03:07:09.363Z,99114.38
2024-02-11T03:09:36.173Z,99111.19
2024-02-11T03:12:02.607Z,99123.88
2024-02-11T03:14:30.093Z,99118.63
2024-02-11T03:16:56.765Z,99116.91
2024-02-11T03:19:23.446Z,99124.59
2024-02-11T03:21:54.152Z,99123.81
2024-02-11T03:24:21.141Z,99110.38
2024-02-11T03:26:47.658Z,99106.13
2024-02-11T03:29:14.300Z,99109.53
2024-02-11T03:31:40.696Z,99105.31
2024-02-11T03:34:07.568Z,99099.53
2024-02-11T03:36:34.418Z,99101.25
2024-02-11T03:39:00.709Z,99107.97
2024-02-11T03:41:27.411Z,99108.78
2024-02-11T03:43:54.106Z,99105.31
2024-02-11T03:46:22.930Z,99109.59
2024-02-11T03:48:49.325Z,99096.81
2024-02-11T03:51:15.718Z,99100.00
2024-02-11T03:53:42.249Z,99094.97
2024-02-11T03:56:08.594Z,99105.13
2024-02-11T03:58:36.221Z,99094.97
2024-02-11T04:01:02.955Z,99093.97
2024-02-11T04:03:29.378Z,99096.38
2024-02-11T04:05:56.920Z,99087.78
2024-02-11T04:08:25.507Z,99084.44
2024-02-11T04:10:53.463Z,99079.41
2024-02-11T04:13:28.180Z,99073.63
2024-02-11T04:15:57.655Z,99073.03
2024-02-11T04:18:24.583Z,99067.81
2024-02-11T04:20:51.155Z,99073.63
2024-02-11T04:23:18.181Z,99066.81
2024-02-11T04:25:46.302Z,99075.97
2024-02-11T04:28:12.669Z,99077.69
2024-02-11T04:30:40.325Z,99069.28
2024-02-11T04:33:08.303Z,99067.69
2024-02-11T04:35:36.236Z,99069.28
2024-02-11T04:38:09.201Z,99068.50
2024-02-11T04:40:35.784Z,99071.97
2024-02-11T04:43:03.888Z,99076.34
2024-02-11T04:45:30.401Z,99076.34
2024-02-11T04:48:00.003Z,99073.81
2024-02-11T04:50:27.913Z,99067.03
2024-02-11T04:52:55.649Z,99071.28
2024-02-11T04:55:25.539Z,99067.81
2024-02-11T04:57:52.672Z,99066.09
2024-02-11T05:00:25.340Z,99074.63
2024-02-11T05:02:52.319Z,99069.56
2024-02-11T05:05:20.205Z,99076.34
2024-02-11T05:07:48.123Z,99073.81
2024-02-11T05:10:14.573Z,99069.50
2024-02-11T05:12:41.102Z,99083.66
2024-02-11T05:15:07.701Z,99088.84
2024-02-11T05:17:36.532Z,99092.25
2024-02-11T05:20:06.417Z,99095.69
2024-02-11T05:22:34.959Z,99095.97
2024-02-11T05:25:01.274Z,99094.38
2024-02-11T05:27:27.836Z,99093.56
2024-02-11T05:29:55.190Z,99104.53
2024-02-11T05:32:21.623Z,99096.97
2024-02-11T05:34:48.266Z,99098.00
2024-02-11T05:37:14.806Z,99098.91
2024-02-11T05:39:44.088Z,99091.34
2024-02-11T05:42:12.202Z,99085.50
2024-02-11T05:44:39.588Z,99089.69
2024-02-11T05:47:06.334Z,99093.13
2024-02-11T05:49:33.014Z,99087.31
2024-02-11T05:51:59.303Z,99094.84
2024-02-11T05:54:28.635Z,99087.22
2024-02-11T05:56:55.183Z,99089.06
2024-02-11T05:59:22.502Z,99086.50
2024-02-11T06:01:49.720Z,99091.44
2024-02-11T06:04:16.500Z,99096.38
2024-02-11T06:06:43.310Z,99092.16
2024-02-11T06:09:14.199Z,99093.84
2024-02-11T06:11:44.177Z,99099.06
2024-02-11T06:14:10.530Z,99092.25
2024-02-11T06:16:37.452Z,99094.78
2024-02-11T06:19:05.563Z,99090.56
2024-02-11T06:21:32.245Z,99089.69
2024-02-11T06:23:58.911Z,99085.56
2024-02-11T06:26:25.362Z,99086.38
2024-02-11T06:28:53.264Z,99087.09
2024-02-11T06:31:19.822Z,99086.22
2024-02-11T06:33:46.441Z,99080.31
2024-02-11T06:36:13.763Z,99085.22
2024-02-11T06:38:42.197Z,99079.44
2024-02-11T06:41:08.659Z,99082.09
2024-02-11T06:43:35.889Z,99088.09
2024-02-11T06:46:04.168Z,99083.75
2024-02-11T06:48:30.533Z,99090.56
2024-02-11T06:50:57.064Z,99088.91
2024-02-11T06:53:24.582Z,99094.00
2024-02-11T06:55:51.183Z,99089.06
2024-02-11T06:58:18.314Z,99088.97
2024-02-11T07:00:44.676Z,99094.78
2024-02-11T07:03:11.344Z,99096.84
2024-02-11T07:05:40.289Z,99102.84
2024-02-11T07:08:08.278Z,99106.41
2024-02-11T07:10:34.659Z,99112.28
2024-02-11T07:13:01.274Z,99119.88
2024-02-11T07:15:27.681Z,99115.59
2024-02-11T07:17:54.893Z,99114.88
2024-02-11T07:20:22.246Z,99114.13
2024-02-11T07:22:48.762Z,99113.25
2024-02-11T07:25:17.313Z,99119.19
2024-02-11T07:27:44.307Z,99127.38
2024-02-11T07:30:12.859Z,99123.13
2024-02-11T07:32:40.169Z,99122.31
2024-02-11T07:35:08.452Z,99126.41
2024-02-11T07:37:34.840Z,99126.59
2024-02-11T07:40:01.163Z,99131.75
2024-02-11T07:42:28.376Z,99129.28
2024-02-11T07:44:54.876Z,99131.63
2024-02-11T07:47:22.163Z,99130.94
2024-02-11T07:49:51.017Z,99143.53
2024-02-11T07:52:18.297Z,99139.16
2024-02-11T07:54:46.378Z,99141.81
2024-02-11T07:57:12.691Z,99135.94
2024-02-11T07:59:39.779Z,99140.34
2024-02-11T08:02:07.726Z,99140.53
2024-02-11T08:04:34.721Z,99137.06
2024-02-11T08:07:01.030Z,99145.53
2024-02-11T08:09:27.349Z,99145.53
2024-02-11T08:11:53.694Z,99152.38
2024-02-11T08:14:20.333Z,99144.09
2024-02-11T08:16:47.192Z,99150.63
2024-02-11T08:19:13.670Z,99154.91
2024-02-11T08:21:40.243Z,99154.22
2024-02-11T08:24:07.822Z,99160.28
2024-02-11T08:26:35.117Z,99172.31
2024-02-11T08:29:02.696Z,99177.50
2024-02-11T08:31:30.627Z,99177.63
2024-02-11T08:33:57.765Z,99189.69
2024-02-11T08:36:25.005Z,99189.78
2024-02-11T08:38:51.385Z,99189.16
2024-02-11T08:41:18.770Z,99189.34
2024-02-11T08:43:45.151Z,99199.47
2024-02-11T08:46:11.674Z,99203.78
2024-02-11T08:48:38.007Z,99198.72
2024-02-11T08:51:04.347Z,99201.41
2024-02-11T08:53:31.949Z,99197.22
2024-02-11T08:56:02.528Z,99199.53
2024-02-11T08:58:29.486Z,99199.41
2024-02-11T09:00:56.528Z,99202.66
2024-02-11T09:03:23.664Z,99209.34
2024-02-11T09:05:50.436Z,99214.25
2024-02-11T09:08:17.145Z,99204.75
2024-02-11T09:10:44.447Z,99207.22
2024-02-11T09:13:12.250Z,99215.06
2024-02-11T09:15:38.882Z,99216.13
2024-02-11T09:18:07.051Z,99208.47
2024-02-11T09:20:36.527Z,99216.13
2024-02-11T09:23:04.403Z,99217.72
2024-02-11T09:25:30.780Z,99229.38
2024-02-11T09:27:57.384Z,99219.16
2024-02-11T09:30:23.712Z,99216.00
2024-02-11T09:32:50.261Z,99221.19
2024-02-11T09:35:22.045Z,99212.72
2024-02-11T09:37:50.227Z,99218.00
2024-02-11T09:40:20.104Z,99218.13
2024-02-11T09:42:47.189Z,99218.25
2024-02-11T09:45:21.380Z,99221.31
2024-02-11T09:47:50.444Z,99218.00
2024-02-11T09:50:19.535Z,99217.72
2024-02-11T09:52:47.665Z,99211.06
2024-02-11T09:55:15.049Z,99208.72
2024-02-11T09:57:41.715Z,99213.19
2024-02-11T10:00:10.043Z,99213.56
2024-02-11T10:02:38.782Z,99219.41
2024-02-11T10:05:07.482Z,99219.47
2024-02-11T10:07:35.417Z,99210.50
2024-02-11T10:10:04.088Z,99216.22
2024-02-11T10:12:30.671Z,99218.47
2024-02-11T10:14:58.568Z,99214.88
2024-02-11T10:17:26.403Z,99215.03
2024-02-11T10:19:53.743Z,99215.81
2024-02-11T10:22:28.004Z,99219.41
2024-02-11T10:24:57.255Z,99215.03
2024-02-11T10:27:25.314Z,99216.69
2024-02-11T10:29:51.790Z,99207.19
2024-02-11T10:32:18.712Z,99212.31
2024-02-11T10:34:46.707Z,99213.66
2024-02-11T10:37:16.642Z,99212.66
2024-02-11T10:39:43.515Z,99212.00
2024-02-11T10:42:09.868Z,99216.38
2024-02-11T10:44:39.667Z,99215.59
2024-02-11T10:47:09.412Z,99212.94
2024-02-11T10:49:36.729Z,99218.72
2024-02-11T10:52:06.749Z,99218.13
2024-02-11T10:54:40.630Z,99226.75
2024-02-11T10:57:13.338Z,99223.19
2024-02-11T10:59:58.185Z,99219.72
2024-02-11T11:02:26.699Z,99220.66
2024-02-11T11:04:55.081Z,99218.25
2024-02-11T11:07:22.406Z,99215.03
2024-02-11T11:09:49.350Z,99209.22
2024-02-11T11:12:18.050Z,99205.66
2024-02-11T11:14:49.348Z,99210.75
2024-02-11T11:17:25.278Z,99214.78
2024-02-11T11:19:53.259Z,99207.25
2024-02-11T11:22:27.823Z,99212.34
2024-02-11T11:24:54.872Z,99206.69
2024-02-11T11:27:22.014Z,99210.81
2024-02-11T11:29:49.250Z,99214.94
2024-02-11T11:32:20.806Z,99207.31
2024-02-11T11:34:47.303Z,99205.69
2024-02-11T11:37:16.784Z,99209.16
2024-02-11T11:39:46.466Z,99211.69
2024-02-11T11:42:12.995Z,99211.81
2024-02-11T11:44:39.943Z,99216.63
2024-02-11T11:47:09.335Z,99225.16
2024-02-11T11:49:37.062Z,99226.81
2024-02-11T11:52:04.328Z,99222.69
2024-02-11T11:54:31.228Z,99228.38
2024-02-11T11:57:01.366Z,99230.78
2024-02-11T11:59:28.385Z,99233.31
2024-02-11T12:01:56.792Z,99222.06
2024-02-11T12:04:23.460Z,99216.00
2024-02-11T12:06:50.163Z,99216.84
2024-02-11T12:09:16.850Z,99216.06
2024-02-11T12:11:48.567Z,99204.06
2024-02-11T12:14:15.440Z,99210.31
2024-02-11T12:16:43.169Z,99206.00
2024-02-11T12:19:11.225Z,99208.41
2024-02-11T12:21:40.818Z,99216.84
2024-02-11T12:24:09.478Z,99217.59
2024-02-11T12:26:37.271Z,99226.84
2024-02-11T12:29:04.241Z,99222.38
2024-02-11T12:31:31.032Z,99217.59
2024-02-11T12:33:57.518Z,99219.31
2024-02-11T12:36:26.546Z,99217.00
2024-02-11T12:38:56.792Z,99217.00
2024-02-11T12:41:24.294Z,99215.25
2024-02-11T12:43:52.552Z,99217.72
2024-02-11T12:46:19.076Z,99210.13
2024-02-11T12:48:46.284Z,99207.47
2024-02-11T12:51:15.031Z,99209.72
2024-02-11T12:53:43.002Z,99214.78
2024-02-11T12:56:12.488Z,99212.31
2024-02-11T12:58:43.387Z,99223.22
2024-02-11T13:01:13.111Z,99228.28
2024-02-11T13:03:40.769Z,99224.09
2024-02-11T13:06:08.153Z,99221.38
2024-02-11T13:08:35.514Z,99219.28
2024-02-11T13:11:02.689Z,99213.09
2024-02-11T13:13:29.859Z,99219.22
2024-02-11T13:15:56.184Z,99219.28
2024-02-11T13:18:22.681Z,99223.56
2024-02-11T13:20:50.091Z,99217.81
2024-02-11T13:23:16.435Z,99212.25
2024-02-11T13:25:43.196Z,99219.03
2024-02-11T13:28:15.200Z,99209.56
2024-02-11T13:30:42.001Z,99211.31
2024-02-11T13:33:11.298Z,99213.84
2024-02-11T13:35:40.968Z,99210.63
2024-02-11T13:38:07.410Z,99211.66
2024-02-11T13:40:34.248Z,99208.34
2024-02-11T13:43:00.903Z,99208.97
2024-02-11T13:45:33.338Z,99206.50
2024-02-11T13:48:01.292Z,99201.41
2024-02-11T13:50:30.625Z,99205.75
2024-02-11T13:52:57.730Z,99208.34
2024-02-11T13:55:24.242Z,99205.81
2024-02-11T13:57:50.807Z,99203.91
2024-02-11T14:00:17.641Z,99211.44
2024-02-11T14:02:44.370Z,99209.84
2024-02-11T14:05:11.422Z,99206.41
2024-02-11T14:07:39.599Z,99199.75
2024-02-11T14:10:06.733Z,99193.13
2024-02-11T14:12:42.628Z,99194.69
2024-02-11T14:15:15.802Z,99192.03
2024-02-11T14:17:49.700Z,99192.88
2024-02-11T14:20:17.053Z,99189.56
2024-02-11T14:22:44.285Z,99190.41
2024-02-11T14:25:20.258Z,99196.22
2024-02-11T14:27:48.996Z,99194.69
2024-02-11T14:30:16.874Z,99194.69
2024-02-11T14:32:43.710Z,99191.03
2024-02-11T14:35:11.363Z,99193.50
2024-02-11T14:37:39.032Z,99193.50
2024-02-11T14:40:08.435Z,99201.16
2024-02-11T14:42:35.094Z,99185.84
2024-02-11T14:45:02.430Z,99185.75
2024-02-11T14:47:33.319Z,99190.16
2024-02-11T14:50:01.144Z,99190.41
2024-02-11T14:52:28.678Z,99190.47
2024-02-11T14:54:55.171Z,99194.75
2024-02-11T14:57:21.881Z,99194.63
2024-02-11T14:59:49.338Z,99204.47
2024-02-11T15:02:16.042Z,99199.03
2024-02-11T15:04:43.047Z,99202.91
2024-02-11T15:07:10.308Z,99201.09
2024-02-11T15:09:39.471Z,99206.16
2024-02-11T15:12:07.077Z,99209.50
2024-02-11T15:14:34.493Z,99211.75
2024-02-11T15:17:00.926Z,99210.22
2024-02-11T15:19:27.715Z,99204.16
2024-02-11T15:21:54.102Z,99216.19
2024-02-11T15:24:20.645Z,99214.41
2024-02-11T15:26:47.236Z,99223.06
2024-02-11T15:29:14.886Z,99224.13
2024-02-11T15:31:42.299Z,99221.66
2024-02-11T15:34:09.072Z,99221.47
2024-02-11T15:36:35.713Z,99216.19
2024-02-11T15:39:02.978Z,99220.41
2024-02-11T15:41:29.595Z,99226.25
2024-02-11T15:43:56.421Z,99223.84
2024-02-11T15:46:22.962Z,99227.63
2024-02-11T15:48:49.410Z,99222.38
2024-02-11T15:51:16.544Z,99225.63
2024-02-11T15:53:42.895Z,99227.31
2024-02-11T15:56:10.848Z,99230.84
2024-02-11T15:58:37.384Z,99223.16
2024-02-11T16:01:05.536Z,99227.19
2024-02-11T16:03:32.274Z,99226.50
2024-02-11T16:05:58.691Z,99228.22
2024-02-11T16:08:25.385Z,99233.22
2024-02-11T16:10:52.128Z,99226.25
2024-02-11T16:13:18.704Z,99234.78
2024-02-11T16:15:45.074Z,99234.59
2024-02-11T16:18:11.851Z,99235.28
2024-02-11T16:20:38.306Z,99235.94
2024-02-11T16:23:05.462Z,99239.25
2024-02-11T16:25:32.860Z,99246.91
2024-02-11T16:28:00.470Z,99242.88
2024-02-11T16:30:26.976Z,99243.13
2024-02-11T16:32:53.603Z,99250.97
2024-02-11T16:35:22.617Z,99249.31
2024-02-11T16:37:50.307Z,99247.59
2024-02-11T16:40:20.060Z,99254.38
2024-02-11T16:42:46.963Z,99250.06
2024-02-11T16:45:13.772Z,99250.50
2024-02-11T16:47:40.748Z,99250.56
2024-02-11T16:50:07.709Z,99248.25
2024-02-11T16:52:34.309Z,99248.44
2024-02-11T16:55:00.636Z,99248.59
2024-02-11T16:57:28.069Z,99253.59
2024-02-11T16:59:55.217Z,99252.03
2024-02-11T17:02:21.663Z,99259.84
2024-02-11T17:04:50.940Z,99253.13
2024-02-11T17:07:17.730Z,99249.75
2024-02-11T17:09:44.081Z,99252.97
2024-02-11T17:12:10.735Z,99252.97
2024-02-11T17:14:37.054Z,99258.09
2024-02-11T17:17:03.776Z,99254.72
2024-02-11T17:19:30.448Z,99256.25
2024-02-11T17:21:57.153Z,99261.88
2024-02-11T17:24:25.447Z,99267.75
2024-02-11T17:26:52.413Z,99261.75
2024-02-11T17:29:19.104Z,99269.28
2024-02-11T17:31:46.321Z,99272.50
2024-02-11T17:34:15.095Z,99270.78
2024-02-11T17:36:43.597Z,99275.97
2024-02-11T17:39:13.076Z,99277.06
2024-02-11T17:41:42.683Z,99272.00
2024-02-11T17:44:09.344Z,99268.53
2024-02-11T17:46:39.961Z,99280.91
2024-02-11T17:49:10.137Z,99268.19
2024-02-11T17:51:41.116Z,99273.19
2024-02-11T17:54:10.165Z,99279.97
2024-02-11T17:56:38.391Z,99281.72
2024-02-11T17:59:10.008Z,99282.56
2024-02-11T18:01:40.496Z,99283.56
2024-02-11T18:04:07.492Z,99290.44
2024-02-11T18:06:34.547Z,99289.81
2024-02-11T18:09:01.532Z,99294.25
2024-02-11T18:11:27.857Z,99299.22
2024-02-11T18:13:54.783Z,99304.34
2024-02-11T18:16:21.417Z,99304.41
2024-02-11T18:18:49.217Z,99301.16
2024-02-11T18:21:16.394Z,99301.88
2024-02-11T18:23:43.299Z,99307.94
2024-02-11T18:26:13.182Z,99304.63
2024-02-11T18:28:43.965Z,99300.38
2024-02-11T18:31:12.128Z,99297.72
2024-02-11T18:33:40.933Z,99306.94
2024-02-11T18:36:07.865Z,99306.19
2024-02-11T18:38:34.802Z,99305.56
2024-02-11T18:41:05.016Z,99298.91
2024-02-11T18:43:34.495Z,99306.31
2024-02-11T18:46:01.890Z,99311.41
2024-02-11T18:48:28.416Z,99309.72
2024-02-11T18:50:54.866Z,99306.38
2024-02-11T18:53:21.472Z,99308.09
2024-02-11T18:55:48.594Z,99310.69
2024-02-11T19:01:43.608Z,99313.28
2024-02-11T19:04:09.988Z,99309.91
2024-02-11T19:06:37.694Z,99308.16
2024-02-11T19:09:07.738Z,99311.56
2024-02-11T19:11:34.256Z,99315.03
2024-02-11T19:14:01.530Z,99302.38
2024-02-11T19:16:28.348Z,99304.91
2024-02-11T19:18:55.033Z,99314.28
2024-02-11T19:21:21.899Z,99321.94
2024-02-11T19:23:48.175Z,99314.41
2024-02-11T19:26:17.505Z,99323.81
2024-02-11T19:28:44.465Z,99316.22
2024-02-11T19:31:12.585Z,99323.69
2024-02-11T19:33:40.028Z,99326.03
2024-02-11T19:36:07.375Z,99320.28
2024-02-11T19:38:34.482Z,99324.53
2024-02-11T19:41:00.966Z,99314.47
2024-02-11T19:43:28.553Z,99316.22
2024-02-11T19:45:54.875Z,99320.34
2024-02-11T19:48:21.330Z,99327.84
2024-02-11T19:50:47.691Z,99313.56
2024-02-11T19:53:25.710Z,99322.06
2024-02-11T19:56:00.705Z,99315.16
2024-02-11T19:58:27.009Z,99304.16
2024-02-11T20:00:54.112Z,99316.81
2024-02-11T20:03:22.155Z,99321.94
2024-02-11T20:05:48.585Z,99316.88
2024-02-11T20:08:15.525Z,99316.16
2024-02-11T20:10:44.888Z,99312.75
2024-02-11T20:13:12.063Z,99319.47
2024-02-11T20:15:38.628Z,99326.22
2024-02-11T20:18:06.471Z,99329.66
2024-02-11T20:20:34.792Z,99325.53
2024-02-11T20:23:01.493Z,99335.66
2024-02-11T20:25:27.835Z,99333.19
2024-02-11T20:27:56.438Z,99333.19
2024-02-11T20:30:23.256Z,99340.69
2024-02-11T20:32:50.964Z,99337.34
2024-02-11T20:35:19.654Z,99340.69
2024-02-11T20:37:47.369Z,99343.28
2024-02-11T20:40:17.626Z,99345.19
2024-02-11T20:42:44.933Z,99341.84
2024-02-11T20:45:11.318Z,99339.38
2024-02-11T20:47:38.252Z,99350.31
2024-02-11T20:50:08.603Z,99352.84
2024-02-11T20:52:38.456Z,99349.50
2024-02-11T20:55:05.354Z,99351.31
2024-02-11T20:57:33.331Z,99352.25
2024-02-11T21:00:00.073Z,99361.63
2024-02-11T21:02:26.475Z,99358.31
2024-02-11T21:04:53.603Z,99356.56
2024-02-11T21:07:21.208Z,99365.75
2024-02-11T21:09:47.514Z,99359.78
2024-02-11T21:12:14.293Z,99364.84
2024-02-11T21:14:40.763Z,99367.38
2024-02-11T21:17:08.933Z,99369.06
2024-02-11T21:19:36.731Z,99372.50
2024-02-11T21:22:04.857Z,99369.16
2024-02-11T21:24:32.216Z,99369.16
2024-02-11T21:26:59.049Z,99374.28
2024-02-11T21:29:30.518Z,99370.03
2024-02-11T21:31:57.060Z,99367.50
2024-02-11T21:34:23.687Z,99365.75
2024-02-11T21:36:52.085Z,99367.44
2024-02-11T21:39:18.555Z,99364.09
2024-02-11T21:41:45.197Z,99371.75
2024-02-11T21:44:16.250Z,99366.69
2024-02-11T21:46:42.791Z,99370.16
2024-02-11T21:49:11.003Z,99372.63
2024-02-11T21:51:39.171Z,99372.56
2024-02-11T21:54:05.957Z,99375.06
2024-02-11T21:56:33.832Z,99370.03
2024-02-11T21:59:00.702Z,99370.91
2024-02-11T22:01:27.568Z,99373.50
2024-02-11T22:03:55.266Z,99385.34
2024-02-11T22:06:21.727Z,99387.03
2024-02-11T22:08:48.881Z,99385.34
2024-02-11T22:11:15.189Z,99380.28
2024-02-11T22:13:41.995Z,99380.34
2024-02-11T22:16:12.952Z,99383.75
2024-02-11T22:18:39.423Z,99382.00
2024-02-11T22:21:06.019Z,99384.69
2024-02-11T22:23:32.330Z,99385.53
2024-02-11T22:25:59.342Z,99392.41
2024-02-11T22:28:25.825Z,99388.22
2024-02-11T22:30:52.470Z,99390.66
2024-02-11T22:33:20.323Z,99387.34
2024-02-11T22:35:47.167Z,99387.34
2024-02-11T22:38:14.078Z,99386.47
2024-02-11T22:40:40.819Z,99386.47
2024-02-11T22:43:07.410Z,99388.22
2024-02-11T22:45:34.765Z,99390.66
2024-02-11T22:48:01.460Z,99394.88
2024-02-11T22:50:29.633Z,99394.13
2024-02-11T22:52:56.366Z,99394.94
2024-02-11T22:55:22.670Z,99397.47
2024-02-11T22:57:49.201Z,99395.72
2024-02-11T23:00:28.006Z,99394.88
2024-02-11T23:02:57.092Z,99401.44
2024-02-11T23:05:23.895Z,99394.56
2024-02-11T23:07:52.102Z,99406.44
2024-02-11T23:10:23.993Z,99401.38
2024-02-11T23:12:50.582Z,99404.84
2024-02-11T23:15:17.184Z,99409.03
2024-02-11T23:17:43.869Z,99408.16
2024-02-11T23:20:16.484Z,99412.34
2024-02-11T23:22:43.193Z,99413.22
2024-02-11T23:25:10.057Z,99411.50
2024-02-11T23:27:38.452Z,99408.91
2024-02-11T23:30:09.189Z,99404.69
2024-02-11T23:32:37.375Z,99405.56
2024-02-11T23:35:05.093Z,99404.84
2024-02-11T23:37:32.246Z,99408.22
2024-02-11T23:39:59.660Z,99409.03
2024-02-11T23:42:26.301Z,99409.09
2024-02-11T23:44:52.919Z,99410.75
2024-02-11T23:47:19.442Z,99407.44
2024-02-11T23:49:46.934Z,99409.97
2024-02-11T23:52:13.997Z,99410.75
2024-02-11T23:54:40.722Z,99405.56
2024-02-11T23:57:10.649Z,99402.09
2024-02-11T23:59:38.096Z,99407.16
